Time;durP1;ratioP1;P1;durP2;ratioP2;P2;SDS_P1;SDS_P2;PMS_P1;PMS_P2;Temp;Humidity;BMP_temperature;BMP_pressure;BME280_temperature;BME280_humidity;BME280_pressure;Samples;Min_cycle;Max_cycle;Signal;HPM_P1;HPM_P2
2023/01/16 00:01:09;;;;;;;;;;;6.30;99.90;;;;;;5042950;28;20378;-72
2023/01/16 00:03:35;;;;;;;;;;;6.30;99.90;;;;;;5046475;28;19917;-72
2023/01/16 00:06:01;;;;;;;;;;;6.40;99.90;;;;;;5050942;28;19930;-72
2023/01/16 00:08:26;;;;;;;;;;;6.30;99.90;;;;;;5045525;28;19924;-72
2023/01/16 00:10:52;;;;;;;;;;;6.40;99.90;;;;;;5050095;28;20020;-72
2023/01/16 00:13:17;;;;;;;;;;;6.30;99.90;;;;;;5041779;28;19917;-72
2023/01/16 00:15:43;;;;;;;;;;;6.40;99.90;;;;;;5049405;28;19920;-72
2023/01/16 00:18:09;;;;;;;;;;;6.30;99.90;;;;;;5041310;28;19917;-72
2023/01/16 00:20:34;;;;;;;;;;;6.30;99.90;;;;;;5052957;28;19935;-72
2023/01/16 00:23:00;;;;;;;;;;;6.40;99.90;;;;;;5037867;28;19924;-72
2023/01/16 00:25:25;;;;;;;;;;;6.30;99.90;;;;;;5041516;28;19913;-72
2023/01/16 00:27:51;;;;;;;;;;;6.40;99.90;;;;;;5040589;28;19975;-72
2023/01/16 00:30:16;;;;;;;;;;;6.30;99.90;;;;;;5046654;28;19935;-72
2023/01/16 00:32:42;;;;;;;;;;;6.30;99.90;;;;;;5046975;28;19921;-72
2023/01/16 00:35:07;;;;;;;;;;;6.30;99.90;;;;;;5051811;28;19935;-72
2023/01/16 00:37:33;;;;;;;;;;;6.30;99.90;;;;;;5041736;28;19948;-72
2023/01/16 00:39:58;;;;;;;;;;;6.30;99.90;;;;;;5044652;28;20288;-72
2023/01/16 00:42:24;;;;;;;;;;;6.30;99.90;;;;;;5038563;28;19921;-70
2023/01/16 00:44:49;;;;;;;;;;;6.30;99.90;;;;;;5036848;28;19909;-72
2023/01/16 00:47:15;;;;;;;;;;;6.30;99.90;;;;;;5040204;28;19932;-72
2023/01/16 00:49:40;;;;;;;;;;;6.30;99.90;;;;;;5038160;28;19925;-72
2023/01/16 00:52:06;;;;;;;;;;;6.20;99.90;;;;;;5044767;28;19917;-72
2023/01/16 00:54:31;;;;;;;;;;;6.30;99.90;;;;;;5036278;28;19917;-72
2023/01/16 00:56:57;;;;;;;;;;;6.30;99.90;;;;;;5048445;28;20632;-72
2023/01/16 00:59:22;;;;;;;;;;;6.20;99.90;;;;;;5038245;28;19923;-71
2023/01/16 01:01:47;;;;;;;;;;;6.20;99.90;;;;;;5035831;28;20425;-72
2023/01/16 01:04:13;;;;;;;;;;;6.20;99.90;;;;;;5043383;28;19924;-72
2023/01/16 01:06:39;;;;;;;;;;;6.20;99.90;;;;;;5041033;28;20000;-72
2023/01/16 01:09:04;;;;;;;;;;;6.20;99.90;;;;;;5044469;28;20655;-72
2023/01/16 01:11:30;;;;;;;;;;;6.20;99.90;;;;;;5040300;28;19917;-72
2023/01/16 01:13:56;;;;;;;;;;;6.20;99.90;;;;;;5034876;28;20378;-72
2023/01/16 01:16:21;;;;;;;;;;;6.30;99.90;;;;;;5040349;28;19967;-72
2023/01/16 01:18:47;;;;;;;;;;;6.20;99.90;;;;;;5042234;28;20255;-72
2023/01/16 01:21:12;;;;;;;;;;;6.20;99.90;;;;;;5048578;28;19913;-72
2023/01/16 01:23:38;;;;;;;;;;;6.20;99.90;;;;;;5045465;28;19965;-72
2023/01/16 01:26:11;;;;;;;;;;;6.20;99.90;;;;;;5043008;28;19927;-72
2023/01/16 01:28:37;;;;;;;;;;;6.20;99.90;;;;;;5046272;28;19978;-72
2023/01/16 01:31:04;;;;;;;;;;;6.20;99.90;;;;;;5037691;28;20368;-72
2023/01/16 01:33:29;;;;;;;;;;;6.20;99.90;;;;;;5045187;28;19913;-71
2023/01/16 01:35:55;;;;;;;;;;;6.20;99.90;;;;;;5040045;28;20267;-72
2023/01/16 01:38:20;;;;;;;;;;;6.10;99.90;;;;;;5045015;28;19999;-72
2023/01/16 01:40:46;;;;;;;;;;;6.20;99.90;;;;;;5041997;28;19917;-72
2023/01/16 01:43:12;;;;;;;;;;;6.10;99.90;;;;;;5035049;28;19921;-72
2023/01/16 01:45:38;;;;;;;;;;;6.10;99.90;;;;;;5038000;28;20411;-72
2023/01/16 01:48:08;;;;;;;;;;;6.10;99.90;;;;;;5042386;28;20011;-72
2023/01/16 01:50:33;;;;;;;;;;;6.10;99.90;;;;;;5039490;28;19917;-72
2023/01/16 01:53:00;;;;;;;;;;;6.10;99.90;;;;;;5042059;28;20389;-72
2023/01/16 01:55:25;;;;;;;;;;;6.10;99.90;;;;;;5044674;28;20667;-72
2023/01/16 01:57:56;;;;;;;;;;;6.10;99.90;;;;;;5036779;28;19917;-72
2023/01/16 02:00:23;;;;;;;;;;;6.10;99.90;;;;;;5044513;28;20639;-72
2023/01/16 02:02:55;;;;;;;;;;;6.10;99.90;;;;;;5037987;28;19971;-72
2023/01/16 02:05:28;;;;;;;;;;;6.10;99.90;;;;;;5043793;28;20742;-72
2023/01/16 02:07:53;;;;;;;;;;;6.00;99.90;;;;;;5036594;28;20004;-72
2023/01/16 02:10:27;;;;;;;;;;;6.00;99.90;;;;;;5044340;28;20457;-70
2023/01/16 02:12:53;;;;;;;;;;;6.00;99.90;;;;;;5033470;28;20003;-72
2023/01/16 02:15:19;;;;;;;;;;;6.00;99.90;;;;;;5038480;28;19988;-72
2023/01/16 02:20:32;;;;;;;;;;;6.00;99.90;;;;;;5035900;28;19962;-72
2023/01/16 02:22:57;;;;;;;;;;;6.00;99.90;;;;;;5047257;28;19910;-71
2023/01/16 02:25:28;;;;;;;;;;;6.00;99.90;;;;;;5043505;28;19978;-72
2023/01/16 02:28:12;;;;;;;;;;;6.00;99.90;;;;;;5043155;28;20009;-72
2023/01/16 02:30:43;;;;;;;;;;;6.00;99.90;;;;;;5046143;28;19913;-72
2023/01/16 02:33:09;;;;;;;;;;;5.90;99.90;;;;;;5031696;28;20640;-71
2023/01/16 02:35:44;;;;;;;;;;;5.90;99.90;;;;;;5041859;28;19912;-72
2023/01/16 02:38:42;;;;;;;;;;;5.90;99.90;;;;;;5043237;28;19917;-72
2023/01/16 02:41:15;;;;;;;;;;;5.90;99.90;;;;;;4994324;28;19931;-72
2023/01/16 02:43:47;;;;;;;;;;;6.00;99.90;;;;;;5032511;28;19925;-72
2023/01/16 02:46:32;;;;;;;;;;;5.90;99.90;;;;;;5044644;28;19917;-72
2023/01/16 02:49:00;;;;;;;;;;;5.90;99.90;;;;;;5034848;28;20025;-72
2023/01/16 02:51:28;;;;;;;;;;;5.90;99.90;;;;;;5039410;28;19951;-72
2023/01/16 02:54:10;;;;;;;;;;;5.90;99.90;;;;;;5038023;28;20449;-71
2023/01/16 02:56:59;;;;;;;;;;;5.90;99.90;;;;;;5043450;28;19944;-72
2023/01/16 02:59:24;;;;;;;;;;;5.90;99.90;;;;;;5036025;28;19916;-72
2023/01/16 03:01:50;;;;;;;;;;;5.90;99.90;;;;;;5047754;28;20416;-72
2023/01/16 03:04:34;;;;;;;;;;;5.90;99.90;;;;;;5037202;28;19923;-72
2023/01/16 03:07:07;;;;;;;;;;;5.90;99.90;;;;;;5041476;28;19916;-72
2023/01/16 03:09:33;;;;;;;;;;;5.90;99.90;;;;;;5041294;28;20499;-71
2023/01/16 03:12:22;;;;;;;;;;;5.90;99.90;;;;;;5045549;28;19913;-72
2023/01/16 03:15:09;;;;;;;;;;;5.90;99.90;;;;;;5035147;28;19935;-72
2023/01/16 03:17:50;;;;;;;;;;;5.90;99.90;;;;;;5045315;28;19917;-72
2023/01/16 03:20:16;;;;;;;;;;;6.00;99.90;;;;;;5040440;28;19920;-72
2023/01/16 03:22:41;;;;;;;;;;;6.00;99.90;;;;;;5046339;28;19920;-72
2023/01/16 03:25:25;;;;;;;;;;;6.00;99.90;;;;;;5042250;28;20074;-72
2023/01/16 03:28:04;;;;;;;;;;;6.00;99.90;;;;;;5042284;28;19916;-72
2023/01/16 03:30:42;;;;;;;;;;;6.00;99.90;;;;;;5039909;28;20031;-72
2023/01/16 03:33:10;;;;;;;;;;;6.00;99.90;;;;;;5042935;28;19913;-71
2023/01/16 03:35:36;;;;;;;;;;;5.90;99.90;;;;;;5031450;28;19923;-72
2023/01/16 03:38:04;;;;;;;;;;;5.90;99.90;;;;;;5046750;28;19912;-71
2023/01/16 03:40:31;;;;;;;;;;;6.00;99.90;;;;;;5036665;28;19924;-72
2023/01/16 03:43:01;;;;;;;;;;;5.90;99.90;;;;;;5038118;28;19920;-72
2023/01/16 03:45:33;;;;;;;;;;;5.90;99.90;;;;;;5040632;28;19920;-72
2023/01/16 03:48:08;;;;;;;;;;;5.90;99.90;;;;;;5036772;28;19936;-72
2023/01/16 03:50:34;;;;;;;;;;;5.90;99.90;;;;;;5035421;28;19921;-72
2023/01/16 03:53:03;;;;;;;;;;;5.90;99.90;;;;;;5037293;28;19952;-72
2023/01/16 03:55:50;;;;;;;;;;;5.90;99.90;;;;;;5033123;28;19921;-72
2023/01/16 03:58:24;;;;;;;;;;;5.90;99.90;;;;;;5033471;28;19920;-72
2023/01/16 04:00:55;;;;;;;;;;;5.90;99.90;;;;;;5036481;28;19965;-72
2023/01/16 04:03:36;;;;;;;;;;;5.90;99.90;;;;;;5038286;28;19987;-72
2023/01/16 04:06:23;;;;;;;;;;;5.90;99.90;;;;;;5033834;28;20281;-72
2023/01/16 04:08:51;;;;;;;;;;;5.90;99.90;;;;;;5028436;28;20000;-72
2023/01/16 04:11:19;;;;;;;;;;;5.90;99.90;;;;;;5036434;28;19924;-72
2023/01/16 04:13:46;;;;;;;;;;;5.80;99.90;;;;;;5042366;28;19916;-72
2023/01/16 04:16:14;;;;;;;;;;;5.90;99.90;;;;;;5041875;28;19917;-72
2023/01/16 04:18:40;;;;;;;;;;;5.90;99.90;;;;;;5037065;28;19942;-72
2023/01/16 04:21:06;;;;;;;;;;;5.90;99.90;;;;;;5035789;28;19917;-72
2023/01/16 04:23:32;;;;;;;;;;;5.90;99.90;;;;;;5035299;28;19913;-72
2023/01/16 04:25:58;;;;;;;;;;;5.80;99.90;;;;;;5042321;28;19925;-72
2023/01/16 04:28:23;;;;;;;;;;;5.80;99.90;;;;;;5040237;28;19920;-72
2023/01/16 04:30:49;;;;;;;;;;;5.80;99.90;;;;;;5042844;28;19986;-72
2023/01/16 04:33:14;;;;;;;;;;;5.80;99.90;;;;;;5040839;28;19920;-72
2023/01/16 04:35:40;;;;;;;;;;;5.80;99.90;;;;;;5036049;28;19913;-72
2023/01/16 04:38:05;;;;;;;;;;;5.80;99.90;;;;;;5038414;28;19991;-72
2023/01/16 04:40:31;;;;;;;;;;;5.80;99.90;;;;;;5041006;28;19912;-72
2023/01/16 04:42:56;;;;;;;;;;;5.80;99.90;;;;;;5037524;28;19927;-72
2023/01/16 04:45:22;;;;;;;;;;;5.80;99.90;;;;;;5043540;28;19913;-72
2023/01/16 04:47:48;;;;;;;;;;;5.80;99.90;;;;;;5039342;28;19963;-72
2023/01/16 04:50:14;;;;;;;;;;;5.80;99.90;;;;;;5047500;28;19913;-72
2023/01/16 04:52:40;;;;;;;;;;;5.80;99.90;;;;;;5043646;28;19924;-72
2023/01/16 04:55:06;;;;;;;;;;;5.80;99.90;;;;;;5038731;28;19913;-72
2023/01/16 04:57:31;;;;;;;;;;;5.80;99.90;;;;;;5043074;28;19921;-72
2023/01/16 04:59:57;;;;;;;;;;;5.80;99.90;;;;;;5040490;28;19912;-72
2023/01/16 05:02:22;;;;;;;;;;;5.70;99.90;;;;;;5045503;28;20007;-72
2023/01/16 05:04:48;;;;;;;;;;;5.80;99.90;;;;;;5037982;28;20598;-72
2023/01/16 05:07:13;;;;;;;;;;;5.70;99.90;;;;;;5046446;28;19921;-72
2023/01/16 05:09:39;;;;;;;;;;;5.80;99.90;;;;;;5043249;28;19913;-72
2023/01/16 05:12:04;;;;;;;;;;;5.70;99.90;;;;;;5039103;28;19913;-72
2023/01/16 05:14:30;;;;;;;;;;;5.70;99.90;;;;;;5040680;28;20324;-72
2023/01/16 05:16:55;;;;;;;;;;;5.70;99.90;;;;;;5045298;28;19920;-71
2023/01/16 05:19:21;;;;;;;;;;;5.80;99.90;;;;;;5041945;28;19916;-70
2023/01/16 05:21:46;;;;;;;;;;;5.70;99.90;;;;;;5047989;28;19936;-72
2023/01/16 05:24:12;;;;;;;;;;;5.70;99.90;;;;;;5043588;28;20007;-72
2023/01/16 05:26:37;;;;;;;;;;;5.70;99.90;;;;;;5038913;28;19927;-72
2023/01/16 05:29:03;;;;;;;;;;;5.70;99.90;;;;;;5039545;28;19920;-72
2023/01/16 05:31:28;;;;;;;;;;;5.70;99.90;;;;;;5044983;28;19992;-72
2023/01/16 05:33:54;;;;;;;;;;;5.70;99.90;;;;;;5042004;28;19917;-71
2023/01/16 05:36:19;;;;;;;;;;;5.70;99.90;;;;;;5040389;28;19960;-71
2023/01/16 05:38:46;;;;;;;;;;;5.70;99.90;;;;;;5041877;28;19940;-72
2023/01/16 05:41:11;;;;;;;;;;;5.70;99.90;;;;;;5032808;28;19971;-72
2023/01/16 05:43:37;;;;;;;;;;;5.70;99.90;;;;;;5040029;28;19933;-72
2023/01/16 05:46:03;;;;;;;;;;;5.70;99.90;;;;;;5036601;28;19917;-71
2023/01/16 05:48:30;;;;;;;;;;;5.70;99.90;;;;;;5042454;28;19955;-72
2023/01/16 05:50:56;;;;;;;;;;;5.70;99.90;;;;;;5039469;28;19913;-71
2023/01/16 05:53:21;;;;;;;;;;;5.70;99.90;;;;;;5042224;28;20262;-72
2023/01/16 05:55:47;;;;;;;;;;;5.60;99.90;;;;;;5042818;28;20277;-72
2023/01/16 05:58:14;;;;;;;;;;;5.70;99.90;;;;;;5041181;28;19913;-72
2023/01/16 06:00:40;;;;;;;;;;;5.70;99.90;;;;;;5041808;28;19928;-72
2023/01/16 06:03:05;;;;;;;;;;;5.60;99.90;;;;;;5043151;28;19913;-72
2023/01/16 06:05:31;;;;;;;;;;;5.70;99.90;;;;;;5033348;28;19942;-70
2023/01/16 06:07:56;;;;;;;;;;;5.70;99.90;;;;;;5046810;28;19919;-72
2023/01/16 06:10:22;;;;;;;;;;;5.60;99.90;;;;;;5037404;28;19913;-70
2023/01/16 06:12:48;;;;;;;;;;;5.70;99.90;;;;;;5042060;28;20037;-72
2023/01/16 06:15:14;;;;;;;;;;;5.60;99.90;;;;;;5036856;28;20675;-72
2023/01/16 06:17:39;;;;;;;;;;;5.70;99.90;;;;;;5034188;28;20545;-72
2023/01/16 06:20:05;;;;;;;;;;;5.60;99.90;;;;;;5038939;28;19951;-71
2023/01/16 06:22:30;;;;;;;;;;;5.60;99.90;;;;;;5038622;28;19913;-72
2023/01/16 06:24:56;;;;;;;;;;;5.70;99.90;;;;;;5038349;28;19920;-71
2023/01/16 06:27:21;;;;;;;;;;;5.60;99.90;;;;;;5034309;28;20045;-70
2023/01/16 06:29:47;;;;;;;;;;;5.70;99.90;;;;;;5031025;28;19939;-72
2023/01/16 06:32:12;;;;;;;;;;;5.60;99.90;;;;;;5035413;28;20336;-71
2023/01/16 06:34:38;;;;;;;;;;;5.60;99.90;;;;;;5033201;28;19955;-71
2023/01/16 06:37:03;;;;;;;;;;;5.70;99.90;;;;;;5038559;28;20342;-71
2023/01/16 06:39:28;;;;;;;;;;;5.70;99.90;;;;;;5038505;28;19937;-72
2023/01/16 06:41:54;;;;;;;;;;;5.70;99.90;;;;;;5043139;28;19939;-71
2023/01/16 06:44:19;;;;;;;;;;;5.70;99.90;;;;;;5042555;28;20428;-71
2023/01/16 06:46:45;;;;;;;;;;;5.70;99.90;;;;;;5039334;28;19925;-70
2023/01/16 06:49:11;;;;;;;;;;;5.70;99.90;;;;;;5036746;28;19921;-72
2023/01/16 06:51:36;;;;;;;;;;;5.70;99.90;;;;;;5034500;28;19913;-71
2023/01/16 06:54:02;;;;;;;;;;;5.70;99.90;;;;;;5035178;28;19921;-70
2023/01/16 06:56:28;;;;;;;;;;;5.70;99.90;;;;;;5043938;28;19913;-71
2023/01/16 06:58:54;;;;;;;;;;;5.70;99.90;;;;;;5035656;28;19967;-70
2023/01/16 07:01:20;;;;;;;;;;;5.70;99.90;;;;;;5037147;28;20012;-71
2023/01/16 07:03:46;;;;;;;;;;;5.70;99.90;;;;;;5035611;28;19917;-72
2023/01/16 07:06:12;;;;;;;;;;;5.70;99.90;;;;;;5045455;28;19952;-71
2023/01/16 07:08:38;;;;;;;;;;;5.70;99.90;;;;;;5039073;28;19917;-72
2023/01/16 07:11:04;;;;;;;;;;;5.70;99.90;;;;;;5037591;28;20574;-72
2023/01/16 07:13:29;;;;;;;;;;;5.70;99.90;;;;;;5043192;28;20366;-72
2023/01/16 07:24:08;;;;;;;;;;;5.70;99.90;;;;;;5032038;28;20009;-72
2023/01/16 07:26:34;;;;;;;;;;;5.70;99.90;;;;;;5039034;28;19940;-71
2023/01/16 07:29:02;;;;;;;;;;;5.70;99.90;;;;;;5042682;28;20498;-70
2023/01/16 07:31:28;;;;;;;;;;;5.70;99.90;;;;;;5041660;28;20404;-70
2023/01/16 07:33:53;;;;;;;;;;;5.70;99.90;;;;;;5038276;28;19913;-71
2023/01/16 07:36:19;;;;;;;;;;;5.70;99.90;;;;;;5038713;28;20357;-71
2023/01/16 07:38:44;;;;;;;;;;;5.70;99.90;;;;;;5043658;28;19912;-71
2023/01/16 07:41:09;;;;;;;;;;;5.80;99.90;;;;;;5035234;28;19917;-71
2023/01/16 07:43:35;;;;;;;;;;;5.70;99.90;;;;;;5043659;28;20348;-72
2023/01/16 07:46:00;;;;;;;;;;;5.70;99.90;;;;;;5040719;28;19950;-71
2023/01/16 07:48:26;;;;;;;;;;;5.70;99.90;;;;;;5044628;28;20344;-70
2023/01/16 07:50:56;;;;;;;;;;;5.70;99.90;;;;;;5048035;28;20058;-71
2023/01/16 07:53:22;;;;;;;;;;;5.70;99.90;;;;;;5048017;28;19940;-71
2023/01/16 07:55:55;;;;;;;;;;;5.80;99.90;;;;;;5041650;28;19931;-70
2023/01/16 07:58:21;;;;;;;;;;;5.80;99.90;;;;;;5044801;28;20320;-70
2023/01/16 08:00:47;;;;;;;;;;;5.70;99.90;;;;;;5042488;28;19991;-70
2023/01/16 08:03:15;;;;;;;;;;;5.80;99.90;;;;;;5046752;28;19913;-72
2023/01/16 08:05:44;;;;;;;;;;;5.70;99.90;;;;;;5042106;28;20063;-72
2023/01/16 08:08:10;;;;;;;;;;;5.80;99.90;;;;;;5039146;28;19955;-70
2023/01/16 08:10:36;;;;;;;;;;;5.80;99.90;;;;;;5038571;28;20369;-71
2023/01/16 08:13:01;;;;;;;;;;;5.80;99.90;;;;;;5044034;28;20440;-72
2023/01/16 08:15:27;;;;;;;;;;;5.80;99.90;;;;;;5038232;28;19923;-72
2023/01/16 08:17:52;;;;;;;;;;;5.80;99.90;;;;;;5047070;28;19938;-72
2023/01/16 08:20:18;;;;;;;;;;;5.80;99.90;;;;;;5045141;28;20365;-72
2023/01/16 08:22:47;;;;;;;;;;;5.80;99.90;;;;;;5045096;28;19918;-72
2023/01/16 08:25:13;;;;;;;;;;;5.70;99.90;;;;;;5039640;28;20396;-72
2023/01/16 08:27:39;;;;;;;;;;;5.80;99.90;;;;;;5036967;28;19960;-72
2023/01/16 08:30:05;;;;;;;;;;;5.80;99.90;;;;;;5042524;28;19956;-72
2023/01/16 08:32:31;;;;;;;;;;;5.80;99.90;;;;;;5037665;28;20741;-72
2023/01/16 08:34:56;;;;;;;;;;;5.80;99.90;;;;;;5037968;28;19947;-72
2023/01/16 08:37:22;;;;;;;;;;;5.80;99.90;;;;;;5037853;28;19909;-71
2023/01/16 08:39:47;;;;;;;;;;;5.80;99.90;;;;;;5048264;28;19913;-71
2023/01/16 08:53:10;;;;;;;;;;;5.80;99.90;;;;;;5043856;28;19923;-72
2023/01/16 08:55:35;;;;;;;;;;;5.80;99.90;;;;;;5049122;28;20350;-71
2023/01/16 08:58:01;;;;;;;;;;;5.80;99.90;;;;;;5033486;28;19917;-71
2023/01/16 09:00:27;;;;;;;;;;;5.80;99.90;;;;;;5047921;28;19916;-71
2023/01/16 09:02:55;;;;;;;;;;;5.80;99.90;;;;;;5042667;28;19965;-71
2023/01/16 09:05:20;;;;;;;;;;;5.80;99.90;;;;;;5042035;28;19920;-72
2023/01/16 09:07:45;;;;;;;;;;;5.80;99.90;;;;;;5031760;28;19948;-72
2023/01/16 09:10:12;;;;;;;;;;;5.80;99.90;;;;;;5049122;28;20392;-72
2023/01/16 09:15:22;;;;;;;;;;;5.80;99.90;;;;;;5044850;28;19963;-71
2023/01/16 09:17:48;;;;;;;;;;;5.80;99.90;;;;;;5042845;28;19913;-72
2023/01/16 09:20:13;;;;;;;;;;;5.80;99.90;;;;;;5036789;28;19913;-72
2023/01/16 09:22:39;;;;;;;;;;;5.80;99.90;;;;;;5045520;28;20422;-71
2023/01/16 09:25:05;;;;;;;;;;;5.80;99.90;;;;;;5036663;28;19913;-71
2023/01/16 09:27:30;;;;;;;;;;;5.80;99.90;;;;;;5040118;28;19960;-71
2023/01/16 09:29:56;;;;;;;;;;;5.80;99.90;;;;;;5037424;28;19982;-72
2023/01/16 09:32:21;;;;;;;;;;;5.90;99.90;;;;;;5044141;28;21272;-71
2023/01/16 09:34:47;;;;;;;;;;;5.80;99.90;;;;;;5036361;28;19913;-72
2023/01/16 09:37:13;;;;;;;;;;;5.80;99.90;;;;;;5049467;28;19915;-71
2023/01/16 09:39:38;;;;;;;;;;;5.80;99.90;;;;;;5036317;28;19920;-71
2023/01/16 09:45:08;;;;;;;;;;;5.80;99.90;;;;;;5043487;28;19928;-72
2023/01/16 09:47:34;;;;;;;;;;;5.80;99.90;;;;;;5048955;28;19913;-72
2023/01/16 09:50:04;;;;;;;;;;;5.90;99.90;;;;;;5042391;28;19963;-72
2023/01/16 10:00:52;;;;;;;;;;;5.90;99.90;;;;;;5036731;28;19971;-72
2023/01/16 10:03:17;;;;;;;;;;;5.80;99.90;;;;;;5038846;28;19955;-71
2023/01/16 10:05:54;;;;;;;;;;;5.90;99.90;;;;;;5042280;28;19917;-71
2023/01/16 10:08:31;;;;;;;;;;;5.90;99.90;;;;;;5045135;28;19919;-71
2023/01/16 10:11:08;;;;;;;;;;;5.90;99.90;;;;;;5039983;28;19917;-71
2023/01/16 10:13:34;;;;;;;;;;;5.90;99.90;;;;;;5040748;28;19917;-72
2023/01/16 10:16:12;;;;;;;;;;;5.90;99.90;;;;;;5031587;28;20753;-71
2023/01/16 10:18:37;;;;;;;;;;;5.90;99.90;;;;;;5044690;28;19913;-72
2023/01/16 10:21:23;;;;;;;;;;;5.90;99.90;;;;;;5042887;28;20513;-71
2023/01/16 10:23:52;;;;;;;;;;;5.90;99.90;;;;;;5016784;28;19916;-72
2023/01/16 10:26:18;;;;;;;;;;;5.90;99.90;;;;;;5041437;28;19916;-71
2023/01/16 10:28:51;;;;;;;;;;;5.90;99.90;;;;;;5048185;28;20596;-72
2023/01/16 10:31:20;;;;;;;;;;;5.90;99.90;;;;;;5034734;28;19909;-71
2023/01/16 10:33:53;;;;;;;;;;;5.90;99.90;;;;;;5041878;28;20389;-72
2023/01/16 10:36:19;;;;;;;;;;;5.90;99.90;;;;;;5044638;28;19936;-71
2023/01/16 10:38:54;;;;;;;;;;;6.00;99.90;;;;;;5041329;28;19923;-72
2023/01/16 10:49:39;;;;;;;;;;;5.90;99.90;;;;;;5040607;28;19927;-70
2023/01/16 10:52:05;;;;;;;;;;;5.90;99.90;;;;;;5034625;28;19921;-72
2023/01/16 10:54:31;;;;;;;;;;;6.00;99.90;;;;;;5044121;28;20092;-72
2023/01/16 10:57:03;;;;;;;;;;;6.00;99.90;;;;;;5037710;28;20302;-71
2023/01/16 10:59:29;;;;;;;;;;;6.00;99.90;;;;;;5039340;28;20309;-72
2023/01/16 11:01:56;;;;;;;;;;;6.00;99.90;;;;;;5038254;28;19913;-70
2023/01/16 11:04:32;;;;;;;;;;;6.00;99.90;;;;;;5039480;28;19912;-72
2023/01/16 11:07:12;;;;;;;;;;;6.00;99.90;;;;;;5042774;28;19920;-71
2023/01/16 11:09:37;;;;;;;;;;;6.00;99.90;;;;;;5047411;28;20285;-72
2023/01/16 11:20:38;;;;;;;;;;;6.10;99.90;;;;;;5043633;28;19963;-71
2023/01/16 11:23:18;;;;;;;;;;;6.10;99.90;;;;;;5039281;28;19916;-71
2023/01/16 11:25:44;;;;;;;;;;;6.10;99.90;;;;;;5044676;28;20328;-72
2023/01/16 11:28:15;;;;;;;;;;;6.10;99.90;;;;;;5044850;28;20018;-72
2023/01/16 11:30:43;;;;;;;;;;;6.10;99.90;;;;;;5031502;28;19920;-71
2023/01/16 11:33:13;;;;;;;;;;;6.20;99.90;;;;;;5028415;28;19923;-72
2023/01/16 11:35:39;;;;;;;;;;;6.20;99.90;;;;;;5040626;28;19919;-72
2023/01/16 11:38:05;;;;;;;;;;;6.20;99.90;;;;;;5040170;28;19929;-70
2023/01/16 11:40:33;;;;;;;;;;;6.20;99.90;;;;;;5046934;28;20118;-71
2023/01/16 11:46:04;;;;;;;;;;;6.30;99.90;;;;;;5039964;28;19976;-71
2023/01/16 11:48:37;;;;;;;;;;;6.30;99.90;;;;;;5037780;28;20356;-72
2023/01/16 11:51:05;;;;;;;;;;;6.40;99.90;;;;;;5036261;28;19948;-71
2023/01/16 11:53:31;;;;;;;;;;;6.40;99.90;;;;;;5041153;28;19917;-71
2023/01/16 11:56:00;;;;;;;;;;;6.40;99.90;;;;;;5065782;28;20281;-72
2023/01/16 11:58:33;;;;;;;;;;;6.40;99.90;;;;;;5042986;28;19939;-72
2023/01/16 12:01:18;;;;;;;;;;;6.40;99.90;;;;;;5034292;28;19917;-71
2023/01/16 12:04:07;;;;;;;;;;;6.40;99.90;;;;;;5041394;28;19916;-71
2023/01/16 12:06:39;;;;;;;;;;;6.40;99.90;;;;;;5033637;28;19959;-72
2023/01/16 12:09:07;;;;;;;;;;;6.40;99.90;;;;;;5037933;28;19913;-72
2023/01/16 12:11:38;;;;;;;;;;;6.40;99.90;;;;;;5040896;28;19920;-72
2023/01/16 12:14:20;;;;;;;;;;;6.40;99.90;;;;;;5039632;28;19912;-72
2023/01/16 12:17:03;;;;;;;;;;;6.40;99.90;;;;;;5034552;28;19917;-72
2023/01/16 12:19:35;;;;;;;;;;;6.40;99.90;;;;;;5034197;28;19932;-72
2023/01/16 12:22:00;;;;;;;;;;;6.40;99.90;;;;;;5045453;28;19916;-72
2023/01/16 12:24:29;;;;;;;;;;;6.40;99.90;;;;;;5044181;28;19935;-72
2023/01/16 12:27:08;;;;;;;;;;;6.40;99.90;;;;;;5039981;28;19928;-71
2023/01/16 12:29:45;;;;;;;;;;;6.50;99.90;;;;;;5040319;28;19917;-72
2023/01/16 12:32:26;;;;;;;;;;;6.50;99.90;;;;;;5036331;28;19971;-72
2023/01/16 12:35:09;;;;;;;;;;;6.50;99.90;;;;;;5035002;28;19913;-71
2023/01/16 12:37:54;;;;;;;;;;;6.50;99.90;;;;;;5071012;28;19920;-72
2023/01/16 12:40:28;;;;;;;;;;;6.50;99.90;;;;;;5036004;28;19909;-72
2023/01/16 12:43:19;;;;;;;;;;;6.50;99.90;;;;;;5039375;28;19948;-72
2023/01/16 12:46:01;;;;;;;;;;;6.50;99.90;;;;;;5046759;28;19917;-71
2023/01/16 12:48:49;;;;;;;;;;;6.50;99.90;;;;;;5037697;28;20004;-72
2023/01/16 12:51:18;;;;;;;;;;;6.50;99.90;;;;;;5035683;28;19944;-72
2023/01/16 12:53:49;;;;;;;;;;;6.50;99.90;;;;;;5042433;28;19917;-72
2023/01/16 12:56:18;;;;;;;;;;;6.50;99.90;;;;;;5043024;28;19971;-72
2023/01/16 12:58:46;;;;;;;;;;;6.50;99.90;;;;;;5047900;28;19970;-72
2023/01/16 13:01:15;;;;;;;;;;;6.50;99.90;;;;;;5044799;28;19928;-72
2023/01/16 13:03:40;;;;;;;;;;;6.50;99.90;;;;;;5043510;28;20452;-71
2023/01/16 13:06:08;;;;;;;;;;;6.50;99.90;;;;;;5042587;28;19974;-72
2023/01/16 13:08:33;;;;;;;;;;;6.50;99.90;;;;;;5040738;28;20162;-72
2023/01/16 13:13:50;;;;;;;;;;;6.50;99.90;;;;;;5042948;28;19924;-72
2023/01/16 13:16:21;;;;;;;;;;;6.50;99.90;;;;;;5033956;28;19917;-72
2023/01/16 13:18:56;;;;;;;;;;;6.50;99.90;;;;;;5046833;28;19912;-71
2023/01/16 13:21:24;;;;;;;;;;;6.50;99.90;;;;;;5044466;28;19916;-72
2023/01/16 13:24:16;;;;;;;;;;;6.50;99.90;;;;;;5040694;28;20007;-71
2023/01/16 13:26:44;;;;;;;;;;;6.50;99.90;;;;;;5022704;28;20504;-71
2023/01/16 13:29:09;;;;;;;;;;;6.50;99.90;;;;;;5041456;28;19913;-72
2023/01/16 13:31:35;;;;;;;;;;;6.50;99.90;;;;;;5040122;28;21723;-72
2023/01/16 13:34:08;;;;;;;;;;;6.50;99.90;;;;;;5037060;28;19913;-72
2023/01/16 13:36:51;;;;;;;;;;;6.50;99.90;;;;;;5038920;28;19917;-71
2023/01/16 13:39:28;;;;;;;;;;;6.50;99.90;;;;;;5037864;28;19913;-72
2023/01/16 13:41:55;;;;;;;;;;;6.40;99.90;;;;;;5033644;28;19917;-71
2023/01/16 13:47:06;;;;;;;;;;;6.40;99.90;;;;;;5040325;28;20030;-72
2023/01/16 13:49:32;;;;;;;;;;;6.50;99.90;;;;;;5044627;28;19971;-71
2023/01/16 13:52:00;;;;;;;;;;;6.50;99.90;;;;;;5040679;28;19921;-72
2023/01/16 13:54:36;;;;;;;;;;;6.50;99.90;;;;;;5036740;28;20307;-72
2023/01/16 13:57:07;;;;;;;;;;;6.50;99.90;;;;;;5038868;28;19954;-71
2023/01/16 13:59:47;;;;;;;;;;;6.50;99.90;;;;;;5040017;28;19913;-71
2023/01/16 14:02:27;;;;;;;;;;;6.40;99.90;;;;;;5038062;28;19921;-72
2023/01/16 14:05:05;;;;;;;;;;;6.50;99.90;;;;;;5036584;28;19913;-72
2023/01/16 14:10:42;;;;;;;;;;;6.40;99.90;;;;;;5038661;28;20472;-71
2023/01/16 14:13:14;;;;;;;;;;;6.50;99.90;;;;;;5036221;28;19991;-72
2023/01/16 14:18:49;;;;;;;;;;;6.50;99.90;;;;;;5037266;28;19924;-72
2023/01/16 14:21:17;;;;;;;;;;;6.50;99.90;;;;;;5034157;28;19913;-72
2023/01/16 14:24:02;;;;;;;;;;;6.50;99.90;;;;;;5040526;28;19925;-72
2023/01/16 14:26:50;;;;;;;;;;;6.50;99.90;;;;;;5036662;28;19928;-71
2023/01/16 14:29:21;;;;;;;;;;;6.50;99.90;;;;;;5040369;28;19916;-72
2023/01/16 14:31:52;;;;;;;;;;;6.50;99.90;;;;;;5039794;28;19912;-72
2023/01/16 14:34:20;;;;;;;;;;;6.40;99.90;;;;;;5038059;28;20336;-72
2023/01/16 14:36:49;;;;;;;;;;;6.40;99.90;;;;;;5039390;28;20409;-72
2023/01/16 14:39:29;;;;;;;;;;;6.40;99.90;;;;;;5038560;28;19909;-71
2023/01/16 14:56:26;;;;;;;;;;;6.40;99.90;;;;;;5034443;28;20561;-72
2023/01/16 14:59:12;;;;;;;;;;;6.40;99.90;;;;;;5040835;28;19913;-72
2023/01/16 15:04:29;;;;;;;;;;;6.40;99.90;;;;;;5043735;28;19923;-72
2023/01/16 15:07:00;;;;;;;;;;;6.40;99.90;;;;;;5034672;28;19928;-71
2023/01/16 15:09:27;;;;;;;;;;;6.30;99.90;;;;;;5035918;28;19951;-72
2023/01/16 15:12:07;;;;;;;;;;;6.30;99.90;;;;;;5031967;28;19962;-71
2023/01/16 15:14:33;;;;;;;;;;;6.30;99.90;;;;;;5037313;28;19921;-72
2023/01/16 15:22:53;;;;;;;;;;;6.30;99.90;;;;;;5034360;28;19975;-72
2023/01/16 15:25:24;;;;;;;;;;;6.30;99.90;;;;;;5039926;28;19909;-72
2023/01/16 15:27:54;;;;;;;;;;;6.20;99.90;;;;;;5037597;28;19916;-72
2023/01/16 15:30:22;;;;;;;;;;;6.30;99.90;;;;;;5036246;28;20990;-72
2023/01/16 15:32:55;;;;;;;;;;;6.20;99.90;;;;;;5034171;28;20007;-72
2023/01/16 15:35:22;;;;;;;;;;;6.20;99.90;;;;;;5037179;28;20448;-72
2023/01/16 15:37:52;;;;;;;;;;;6.20;99.90;;;;;;5032021;28;20472;-71
2023/01/16 15:40:20;;;;;;;;;;;6.20;99.90;;;;;;5039488;28;19916;-71
2023/01/16 15:48:21;;;;;;;;;;;6.20;99.90;;;;;;5034776;28;19923;-72
2023/01/16 15:50:54;;;;;;;;;;;6.20;99.90;;;;;;5037795;28;19920;-71
2023/01/16 15:53:20;;;;;;;;;;;6.20;99.90;;;;;;5033811;28;19948;-71
2023/01/16 15:55:47;;;;;;;;;;;6.20;99.90;;;;;;5034904;28;19919;-71
2023/01/16 15:58:23;;;;;;;;;;;6.20;99.90;;;;;;5034347;28;20290;-72
2023/01/16 16:00:56;;;;;;;;;;;6.20;99.90;;;;;;5035351;28;19909;-72
2023/01/16 16:03:23;;;;;;;;;;;6.10;99.90;;;;;;5032835;28;19968;-71
2023/01/16 16:05:50;;;;;;;;;;;6.10;99.90;;;;;;5039881;28;19920;-71
2023/01/16 16:08:17;;;;;;;;;;;6.20;99.90;;;;;;5034302;28;20741;-71
2023/01/16 16:13:28;;;;;;;;;;;6.10;99.90;;;;;;5034185;28;20003;-71
2023/01/16 16:18:38;;;;;;;;;;;6.10;99.90;;;;;;5035619;28;20012;-72
2023/01/16 16:21:05;;;;;;;;;;;6.10;99.90;;;;;;5049838;28;20024;-72
2023/01/16 16:23:32;;;;;;;;;;;6.10;99.90;;;;;;5044139;28;19913;-72